Terminal Aerodrome Forecast
Issued by NWS

Home | Current Version | Previous Version | Text Only | Print | Product List | Glossary On
Versions: 1 2 3 4 5 6 7 8 9 10 11 12
417
FTUS43 KIND 260525
TAFBMG
TAF
KBMG 260525Z 2606/2706 16008KT P6SM -SHRA OVC050
      TEMPO 2606/2610 3SM BR
     FM261000 17007KT 6SM -SHRA OVC015
     FM261200 18007KT P6SM VCSH OVC015
     FM261500 19010KT P6SM VCSH OVC040
     FM262000 22011KT P6SM VCSH BKN045
     FM270000 24006KT P6SM BKN050
      AMD LTD TO CLD VIS AND WIND TIL 261300=

USA.gov is the U.S. government's official web portal to all federal, state and local government web resources and services.